Abadi — V8V2002 — position and weather

sailwx.info

Track history (hours):
 
Tides and Currents Weather Stations Pressure Air Temp Water Temp Dewpoint Dewpoint Depression Visibility Wind Speed Wind Dir Waves Ship Positions

Abadi

Last reported at 2014-Jul-25 12:29 UTC. Time now 2014-Aug-21 06:18 UTC.
Position N 32°06' E 134°32'.
Warning: this ship's position is 26 days out of date.

Type: Ship (hazmat cat A). MMSI: 508011000.

Date/timePositionNaut miles runAvg speedWind from/ knotsBaromVisibWave heightAir tempDewpointWater temp
2014-Jul-25 12:29N 32°06' E 134°32'1516.2
2014-Jul-25 11:33N 32°21' E 134°36'6114.7
2014-Jul-25 07:23N 33°20' E 134°52'1916.3
2014-Jul-25 06:13N 33°39' E 134°54'1415.0
2014-Jul-25 05:18N 33°53' E 134°56'912.3
2014-Jul-25 04:33N 34°02' E 134°56'1211.7
2014-Jul-25 03:33N 34°14' E 134°57'1110.6
2014-Jul-25 02:33N 34°23' E 135°02'1313.1
2014-Jul-25 01:33N 34°31' E 135°15'8 7.5
2014-Jul-25 00:33N 34°33' E 135°24'0 0.1
2014-Jul-24 23:05N 34°33' E 135°24'0 0.0
2014-Jul-24 22:05N 34°33' E 135°24'0 0.0
2014-Jul-24 18:21N 34°33' E 135°24'0 0.0
2014-Jul-24 09:03N 34°33' E 135°24'0 0.0
2014-Jul-24 07:14N 34°33' E 135°24'0 0.0
2014-Jul-24 06:14N 34°33' E 135°24'0 0.0
2014-Jul-24 05:25N 34°33' E 135°24'0 0.0
2014-Jul-24 04:31N 34°33' E 135°24'0 0.0
2014-Jul-24 03:24N 34°33' E 135°24'0 0.0
2014-Jul-24 02:24N 34°33' E 135°24'0 0.5
2014-Jul-24 01:32N 34°33' E 135°24'7 7.5
2014-Jul-24 00:33N 34°31' E 135°15'1212.1
2014-Jul-23 23:34N 34°23' E 135°04'1212.0
2014-Jul-23 22:33N 34°12' E 134°60'9 8.3
2014-Jul-23 21:31N 34°03' E 134°59'7 7.2
2014-Jul-23 20:32N 33°56' E 134°59'3610.7
2014-Jul-23 17:09N 33°20' E 134°56'  
Track history (hours):
 
Tides and Currents Weather Stations Pressure Air Temp Water Temp Dewpoint Dewpoint Depression Visibility Wind Speed Wind Dir Waves Ship Positions

Abadi

Last reported at 2014-Jul-25 12:29 UTC. Time now 2014-Aug-21 06:18 UTC.
Position N 32°06' E 134°32'.
Warning: this ship's position is 26 days out of date.

Type: Ship (hazmat cat A). MMSI: 508011000.

Date/timePositionNaut miles runAvg speedWind from/ knotsBaromVisibWave heightAir tempDewpointWater temp
2014-Jul-25 12:29N 32°06' E 134°32'1516.2
2014-Jul-25 11:33N 32°21' E 134°36'6114.7
2014-Jul-25 07:23N 33°20' E 134°52'1916.3
2014-Jul-25 06:13N 33°39' E 134°54'1415.0
2014-Jul-25 05:18N 33°53' E 134°56'912.3
2014-Jul-25 04:33N 34°02' E 134°56'1211.7
2014-Jul-25 03:33N 34°14' E 134°57'1110.6
2014-Jul-25 02:33N 34°23' E 135°02'1313.1
2014-Jul-25 01:33N 34°31' E 135°15'8 7.5
2014-Jul-25 00:33N 34°33' E 135°24'0 0.1
2014-Jul-24 23:05N 34°33' E 135°24'0 0.0
2014-Jul-24 22:05N 34°33' E 135°24'0 0.0
2014-Jul-24 18:21N 34°33' E 135°24'0 0.0
2014-Jul-24 09:03N 34°33' E 135°24'0 0.0
2014-Jul-24 07:14N 34°33' E 135°24'0 0.0
2014-Jul-24 06:14N 34°33' E 135°24'0 0.0
2014-Jul-24 05:25N 34°33' E 135°24'0 0.0
2014-Jul-24 04:31N 34°33' E 135°24'0 0.0
2014-Jul-24 03:24N 34°33' E 135°24'0 0.0
2014-Jul-24 02:24N 34°33' E 135°24'0 0.5
2014-Jul-24 01:32N 34°33' E 135°24'7 7.5
2014-Jul-24 00:33N 34°31' E 135°15'1212.1
2014-Jul-23 23:34N 34°23' E 135°04'1212.0
2014-Jul-23 22:33N 34°12' E 134°60'9 8.3
2014-Jul-23 21:31N 34°03' E 134°59'7 7.2
2014-Jul-23 20:32N 33°56' E 134°59'3610.7
2014-Jul-23 17:09N 33°20' E 134°56'  

Dump ship's entire track history